EW5531 Weather Reports


Display with metric or nautical units.
time (UTC)temp
F
wind
direction
speed
MPH
gust
MPH
rain 1hr
in
rain 24hr
in
rain mn
in
humidity
%
barometer
mb
20191018065536 43 131 2.0 0.0 0.00 0.00 0.00 83 1011.7
20191018064516 43 127 1.0 0.0 0.00 0.00 0.00 83 1011.9
20191018063532 43 124 2.0 0.0 0.00 0.00 0.00 83 1012.1
20191018061539 43 103 3.0 0.0 0.00 0.00 0.00 84 1012.3
20191018060447 43 118 2.0 0.0 0.00 0.00 0.00 84 1012.3
20191018055447 43 113 1.0 0.0 0.00 0.00 0.00 84 1012.3
20191018054527 43 111 2.0 0.0 0.00 0.00 0.00 84 1012.2
20191018053454 43 158 3.0 0.0 0.00 0.00 0.00 83 1012.3
20191018052522 43 146 2.0 0.0 0.00 0.00 0.00 83 1012.5
20191018051433 44 155 1.0 0.0 0.00 0.00 0.00 82 1012.4
20191018045532 44 149 3.0 0.0 0.00 0.00 0.00 81 1012.6
20191018044533 44 143 2.0 0.0 0.00 0.00 0.00 81 1012.6
20191018042507 45 163 4.0 0.0 0.00 0.00 0.00 80 1012.6
20191018041546 45 131 4.0 0.0 0.00 0.00 0.00 80 1012.5
20191018035517 44 139 2.0 0.0 0.00 0.00 0.00 79 1012.3
20191018034436 44 135 4.0 0.0 0.00 0.00 0.00 79 1012.7
20191018032516 45 153 3.0 0.0 0.00 0.00 0.00 79 1012.6
20191018031459 44 124 4.0 0.0 0.00 0.00 0.00 78 1012.5
20191018030509 45 165 3.0 0.0 0.00 0.00 0.00 78 1012.4
20191018024504 44 146 2.0 0.0 0.00 0.00 0.00 78 1012.4
20191018023545 45 162 4.0 0.0 0.00 0.00 0.00 78 1012.6
20191018022502 45 128 2.0 0.0 0.00 0.00 0.00 77 1012.6
20191018021521 45 105 3.0 0.0 0.00 0.00 0.00 77 1012.5
20191018015515 45 113 5.0 0.0 0.00 0.00 0.00 77 1012.5
20191018013456 45 172 1.0 0.0 0.00 0.00 0.00 78 1012.5
20191018012407 45 136 1.0 0.0 0.00 0.00 0.00 79 1012.6
20191018011444 45 141 1.0 0.0 0.00 0.00 0.00 78 1012.8
20191018010447 45 120 0.0 0.0 0.00 0.00 0.00 77 1012.9
20191018005517 46 131 1.0 0.0 0.00 0.00 0.00 76 1013.0
20191018001451 48 157 1.0 0.0 0.00 0.00 0.00 73 1012.8
20191018000515 48 153 1.0 0.0 0.00 0.00 0.00 72 1012.7
20191017234424 49 156 2.0 0.0 0.00 0.00 0.00 70 1012.5
20191017231516 51 117 2.0 0.0 0.00 0.00 0.00 66 1012.9
20191017230507 52 141 1.0 0.0 0.00 0.00 0.00 64 1013.0
20191017225500 52 136 1.0 0.0 0.00 0.00 0.00 62 1013.0
20191017224509 53 163 4.0 0.0 0.00 0.00 0.00 61 1013.2
20191017223513 53 101 4.0 0.0 0.00 0.00 0.00 60 1013.3
20191017220525 54 143 3.0 0.0 0.00 0.00 0.00 58 1013.2
20191017214447 54 151 2.0 0.0 0.00 0.00 0.00 56 1013.2
20191017212525 54 125 5.0 0.0 0.00 0.00 0.00 57 1013.3
20191017210523 54 153 4.0 0.0 0.00 0.00 0.00 58 1013.4
20191017204434 54 131 5.0 0.0 0.00 0.00 0.00 59 1013.6
20191017202443 53 88 5.0 0.0 0.00 0.00 0.00 60 1013.8
20191017200443 53 127 4.0 0.0 0.00 0.00 0.00 63 1014.2
20191017192523 53 95 1.0 0.0 0.00 0.00 0.00 63 1014.9
20191017191526 53 146 5.0 0.0 0.00 0.00 0.00 63 1015.0
20191017190509 53 111 4.0 0.0 0.00 0.00 0.00 64 1015.1
20191017185515 53 115 2.0 0.0 0.00 0.00 0.00 64 1015.3
20191017184530 52 61 6.0 0.0 0.00 0.00 0.00 65 1015.4
20191017182504 52 129 3.0 0.0 0.00 0.00 0.00 66 1015.8
20191017181518 52 123 3.0 0.0 0.00 0.00 0.00 65 1015.8
20191017180508 52 104 0.0 0.0 0.00 0.00 0.00 66 1015.9
20191017175503 52 130 3.0 0.0 0.00 0.00 0.00 68 1016.1
20191017174451 52 179 7.0 0.0 0.00 0.00 0.00 67 1016.2
20191017164515 49 149 3.0 0.0 0.00 0.00 0.00 72 1016.9
20191017162539 48 114 4.0 0.0 0.00 0.00 0.00 73 1017.0
20191017161506 48 131 2.0 0.0 0.00 0.00 0.00 74 1017.2
20191017160509 47 140 5.0 0.0 0.00 0.00 0.00 75 1017.1
20191017155553 47 80 4.0 0.0 0.00 0.00 0.00 77 1017.2
20191017154551 47 84 5.0 0.0 0.00 0.00 0.00 76 1017.1
20191017153449 46 167 4.0 0.0 0.00 0.00 0.00 78 1017.1
20191017152513 46 134 3.0 0.0 0.00 0.00 0.00 80 1017.1
20191017151510 45 126 1.0 0.0 0.00 0.00 0.00 82 1017.2
20191017145516 44 137 4.0 0.0 0.00 0.00 0.00 86 1017.2
20191017144547 43 127 3.0 0.0 0.00 0.00 0.00 88 1017.1
20191017141515 40 167 3.0 0.0 0.00 0.00 0.00 92 1017.3
20191017140526 40 155 1.0 0.0 0.00 0.00 0.00 92 1017.3
20191017135509 38 141 2.0 0.0 0.00 0.00 0.00 92 1017.4
20191017134503 38 136 1.0 0.0 0.00 0.00 0.00 93 1017.3
20191017131452 34 148 1.0 0.0 0.00 0.00 0.00 93 1017.0
20191017130517 34 202 0.0 0.0 0.00 0.00 0.00 93 1017.1
20191017125429 33 202 0.0 0.0 0.00 0.00 0.00 93 1017.1
20191017120529 32 202 0.0 0.0 0.00 0.00 0.00 93 1016.8
20191017115534 33 202 0.0 0.0 0.00 0.00 0.00 93 1016.8
20191017114434 33 202 0.0 0.0 0.00 0.00 0.00 93 1016.8
20191017113505 34 202 0.0 0.0 0.00 0.00 0.00 93 1016.8
20191017112501 33 206 0.0 0.0 0.00 0.00 0.00 93 1016.8
20191017111509 32 206 0.0 0.0 0.00 0.00 0.00 93 1016.8
20191017101536 34 271 0.0 0.0 0.00 0.00 0.00 93 1016.4
20191017100548 34 271 0.0 0.0 0.00 0.00 0.00 93 1016.5
20191017095505 34 271 0.0 0.0 0.00 0.00 0.00 93 1016.4
20191017094520 35 271 0.0 0.0 0.00 0.00 0.00 93 1016.4
20191017092507 35 271 0.0 0.0 0.00 0.00 0.00 93 1016.3
20191017090456 36 271 0.0 0.0 0.00 0.00 0.00 93 1016.4
20191017085532 36 271 0.0 0.0 0.00 0.00 0.00 93 1016.4
20191017084511 36 271 0.0 0.0 0.00 0.00 0.00 93 1016.4
20191017080452 37 271 0.0 0.0 0.00 0.00 0.00 93 1016.8
20191017073532 37 271 0.0 0.0 0.00 0.00 0.00 93 1017.2
20191017072458 37 271 0.0 0.0 0.00 0.00 0.00 93 1017.3
20191017071451 37 271 0.0 0.0 0.00 0.00 0.00 93 1017.1